Time;durP1;ratioP1;P1;durP2;ratioP2;P2;SDS_P1;SDS_P2;PMS_P1;PMS_P2;Temp;Humidity;BMP_temperature;BMP_pressure;BME280_temperature;BME280_humidity;BME280_pressure;Samples;Min_cycle;Max_cycle;Signal;HPM_P1;HPM_P2
2022/01/17 00:00:21;;;;;;;19.55;4.03;;;;;;;;;;5011429;28;93363;-71
2022/01/17 00:02:49;;;;;;;24.20;3.38;;;;;;;;;;5011727;28;91865;-71
2022/01/17 00:05:16;;;;;;;19.58;2.85;;;;;;;;;;5007561;28;92530;-71
2022/01/17 00:07:43;;;;;;;17.83;2.97;;;;;;;;;;5001471;28;93126;-71
2022/01/17 00:10:09;;;;;;;19.02;2.85;;;;;;;;;;5003516;28;95825;-71
2022/01/17 00:12:38;;;;;;;20.60;3.33;;;;;;;;;;5010988;28;92734;-71
2022/01/17 00:15:16;;;;;;;19.42;2.85;;;;;;;;;;5010991;28;93266;-71
2022/01/17 00:17:45;;;;;;;19.48;2.88;;;;;;;;;;5014455;28;92358;-71
2022/01/17 00:20:14;;;;;;;30.02;2.97;;;;;;;;;;5011840;28;93197;-71
2022/01/17 00:22:41;;;;;;;25.27;2.72;;;;;;;;;;5010876;28;94491;-71
2022/01/17 00:25:07;;;;;;;17.83;2.47;;;;;;;;;;5012618;28;92879;-71
2022/01/17 00:27:33;;;;;;;17.40;2.95;;;;;;;;;;5011924;28;92295;-71
2022/01/17 00:30:02;;;;;;;25.90;3.80;;;;;;;;;;5011485;28;93523;-72
2022/01/17 00:32:30;;;;;;;14.80;2.20;;;;;;;;;;5007453;28;93058;-71
2022/01/17 00:34:57;;;;;;;27.42;3.30;;;;;;;;;;4994969;28;94874;-71
2022/01/17 00:37:23;;;;;;;25.20;3.20;;;;;;;;;;5001524;28;92267;-71
2022/01/17 00:39:50;;;;;;;24.15;2.88;;;;;;;;;;5015335;28;92361;-71
2022/01/17 00:42:16;;;;;;;18.10;2.65;;;;;;;;;;5011949;28;93553;-71
2022/01/17 00:44:43;;;;;;;24.98;3.53;;;;;;;;;;5011541;28;92357;-71
2022/01/17 00:47:09;;;;;;;22.02;2.83;;;;;;;;;;5012425;28;92770;-71
2022/01/17 00:49:35;;;;;;;18.00;3.20;;;;;;;;;;5010652;28;94647;-71
2022/01/17 00:52:04;;;;;;;24.85;3.58;;;;;;;;;;5013356;28;91637;-71
2022/01/17 00:54:31;;;;;;;27.48;2.85;;;;;;;;;;5003378;28;93255;-71
2022/01/17 00:56:58;;;;;;;19.73;2.60;;;;;;;;;;5007650;28;94313;-71
2022/01/17 00:59:24;;;;;;;20.95;2.67;;;;;;;;;;5008949;28;95467;-71
2022/01/17 01:01:50;;;;;;;24.75;2.97;;;;;;;;;;5009599;28;95621;-71
2022/01/17 01:04:17;;;;;;;23.25;3.20;;;;;;;;;;5007476;28;92452;-71
2022/01/17 01:06:43;;;;;;;23.20;2.83;;;;;;;;;;5011524;28;93197;-71
2022/01/17 01:09:10;;;;;;;20.83;3.38;;;;;;;;;;4994995;28;92337;-71
2022/01/17 01:11:36;;;;;;;18.95;2.67;;;;;;;;;;5000635;28;92432;-71
2022/01/17 01:14:02;;;;;;;19.17;2.53;;;;;;;;;;5010514;28;92511;-71
2022/01/17 01:16:34;;;;;;;16.88;2.95;;;;;;;;;;5000765;28;91946;-71
2022/01/17 01:29:34;;;;;;;29.10;2.97;;;;;;;;;;5010687;28;93573;-71
2022/01/17 01:32:05;;;;;;;17.05;2.65;;;;;;;;;;5010748;28;92495;-71
2022/01/17 01:34:39;;;;;;;23.40;2.60;;;;;;;;;;4997372;28;92922;-71
2022/01/17 01:37:06;;;;;;;19.58;2.55;;;;;;;;;;5011856;28;92512;-71
2022/01/17 01:39:33;;;;;;;22.65;2.92;;;;;;;;;;5011413;28;92446;-71
2022/01/17 01:41:59;;;;;;;25.35;3.30;;;;;;;;;;5011207;28;93681;-71
2022/01/17 01:44:26;;;;;;;21.80;2.85;;;;;;;;;;5014449;28;94478;-71
2022/01/17 01:46:54;;;;;;;16.77;2.80;;;;;;;;;;5011946;28;93005;-71
2022/01/17 01:49:21;;;;;;;23.10;3.42;;;;;;;;;;5007902;28;94799;-71
2022/01/17 01:51:48;;;;;;;17.92;2.47;;;;;;;;;;5011894;28;92419;-71
2022/01/17 01:54:14;;;;;;;16.58;2.65;;;;;;;;;;5011267;28;93054;-71
2022/01/17 01:56:43;;;;;;;22.35;3.33;;;;;;;;;;5001033;28;93549;-71
2022/01/17 01:59:09;;;;;;;17.40;2.50;;;;;;;;;;5002236;28;92895;-71
2022/01/17 02:01:36;;;;;;;20.00;2.53;;;;;;;;;;5011947;28;92890;-71
2022/01/17 02:04:03;;;;;;;15.77;2.40;;;;;;;;;;5014552;28;92451;-72
2022/01/17 02:06:32;;;;;;;26.35;3.30;;;;;;;;;;5011742;28;92018;-71
2022/01/17 02:09:00;;;;;;;20.23;3.30;;;;;;;;;;5014232;28;92891;-71
2022/01/17 02:11:26;;;;;;;21.20;2.72;;;;;;;;;;5006774;28;92400;-72
2022/01/17 02:13:52;;;;;;;18.42;3.47;;;;;;;;;;5009272;28;95087;-71
2022/01/17 02:16:21;;;;;;;15.23;2.55;;;;;;;;;;5009647;28;93899;-71
2022/01/17 02:18:49;;;;;;;21.23;3.03;;;;;;;;;;5012025;28;92326;-71
2022/01/17 02:23:43;;;;;;;18.85;2.90;;;;;;;;;;5007252;28;92236;-71
2022/01/17 02:26:09;;;;;;;21.50;3.13;;;;;;;;;;5009085;28;93062;-71
2022/01/17 02:28:36;;;;;;;20.25;2.47;;;;;;;;;;5005579;28;93153;-71
2022/01/17 02:31:04;;;;;;;25.58;3.08;;;;;;;;;;5014170;28;91830;-71
2022/01/17 02:33:31;;;;;;;26.88;2.97;;;;;;;;;;5013699;28;92449;-71
2022/01/17 02:35:58;;;;;;;25.77;3.65;;;;;;;;;;5013371;28;94294;-71
2022/01/17 02:38:24;;;;;;;18.00;3.10;;;;;;;;;;5012925;28;94412;-71
2022/01/17 02:40:51;;;;;;;18.20;2.80;;;;;;;;;;5013863;28;94376;-71
2022/01/17 02:43:20;;;;;;;20.52;3.55;;;;;;;;;;5013291;28;92549;-71
2022/01/17 02:48:19;;;;;;;20.60;3.08;;;;;;;;;;5014404;28;92394;-71
2022/01/17 02:50:46;;;;;;;22.25;2.90;;;;;;;;;;5017019;28;93132;-71
2022/01/17 02:53:12;;;;;;;19.95;3.17;;;;;;;;;;5013689;28;92398;-71
2022/01/17 02:55:40;;;;;;;15.38;3.15;;;;;;;;;;5013895;28;92757;-71
2022/01/17 02:58:06;;;;;;;17.45;2.47;;;;;;;;;;5013575;28;92453;-71
2022/01/17 03:00:33;;;;;;;16.85;3.45;;;;;;;;;;5014004;28;92583;-71
2022/01/17 03:02:59;;;;;;;20.50;2.58;;;;;;;;;;5011700;28;96872;-71
2022/01/17 03:05:26;;;;;;;29.77;3.05;;;;;;;;;;5013571;28;92294;-71
2022/01/17 03:07:52;;;;;;;21.70;3.92;;;;;;;;;;5014430;28;92479;-71
2022/01/17 03:10:36;;;;;;;18.38;2.75;;;;;;;;;;5012404;28;92443;-71
2022/01/17 03:13:04;;;;;;;15.55;2.40;;;;;;;;;;5015640;28;92366;-71
2022/01/17 03:15:30;;;;;;;22.27;2.75;;;;;;;;;;5013429;28;93880;-71
2022/01/17 03:17:56;;;;;;;16.27;2.55;;;;;;;;;;5013361;28;92510;-71
2022/01/17 03:20:22;;;;;;;19.27;2.85;;;;;;;;;;5014392;28;94381;-71
2022/01/17 03:22:49;;;;;;;15.60;2.53;;;;;;;;;;5013016;28;92455;-71
2022/01/17 03:25:15;;;;;;;23.60;3.03;;;;;;;;;;5013302;28;92554;-71
2022/01/17 03:27:41;;;;;;;24.17;3.17;;;;;;;;;;5009292;28;94744;-71
2022/01/17 03:30:08;;;;;;;19.83;2.85;;;;;;;;;;5004332;28;93477;-71
2022/01/17 03:32:35;;;;;;;19.92;2.95;;;;;;;;;;5011081;28;92397;-71
2022/01/17 03:35:01;;;;;;;27.17;3.72;;;;;;;;;;5009385;28;94375;-71
2022/01/17 03:37:27;;;;;;;21.20;2.80;;;;;;;;;;5012734;28;94114;-71
2022/01/17 03:39:54;;;;;;;21.88;2.60;;;;;;;;;;5013179;28;94412;-71
2022/01/17 03:42:21;;;;;;;21.80;2.45;;;;;;;;;;5009988;28;92749;-71
2022/01/17 03:44:48;;;;;;;14.68;3.03;;;;;;;;;;5011395;28;91735;-71
2022/01/17 03:47:14;;;;;;;18.63;2.40;;;;;;;;;;5012607;28;94027;-71
2022/01/17 03:49:41;;;;;;;31.17;4.03;;;;;;;;;;5009817;28;92403;-71
2022/01/17 03:52:07;;;;;;;26.38;3.70;;;;;;;;;;5006618;28;94755;-71
2022/01/17 03:54:34;;;;;;;32.63;2.60;;;;;;;;;;5015496;28;93775;-71
2022/01/17 03:57:00;;;;;;;24.20;2.58;;;;;;;;;;5013307;28;92407;-71
2022/01/17 03:59:27;;;;;;;26.10;2.85;;;;;;;;;;5012817;28;92767;-71
2022/01/17 04:01:53;;;;;;;19.40;3.03;;;;;;;;;;5012981;28;92390;-71
2022/01/17 04:04:19;;;;;;;20.90;2.35;;;;;;;;;;5012363;28;92374;-71
2022/01/17 04:06:46;;;;;;;23.20;3.00;;;;;;;;;;5009203;28;93246;-71
2022/01/17 04:09:12;;;;;;;24.27;3.53;;;;;;;;;;5008142;28;92315;-71
2022/01/17 04:11:38;;;;;;;21.40;2.60;;;;;;;;;;4999543;28;92381;-71
2022/01/17 04:14:06;;;;;;;16.70;2.58;;;;;;;;;;4994907;28;93242;-71
2022/01/17 04:16:33;;;;;;;20.60;2.63;;;;;;;;;;5013857;28;94824;-70
2022/01/17 04:18:59;;;;;;;27.13;3.45;;;;;;;;;;5010168;28;95802;-70
2022/01/17 04:21:31;;;;;;;18.55;2.80;;;;;;;;;;5009153;28;93042;-70
2022/01/17 04:23:57;;;;;;;25.92;3.15;;;;;;;;;;5010415;28;92367;-70
2022/01/17 04:26:23;;;;;;;20.20;2.63;;;;;;;;;;5007100;28;92402;-71
2022/01/17 04:28:50;;;;;;;17.73;2.63;;;;;;;;;;5000322;28;92480;-71
2022/01/17 04:31:16;;;;;;;25.55;2.83;;;;;;;;;;5011927;28;93761;-71
2022/01/17 04:33:42;;;;;;;17.80;2.67;;;;;;;;;;4998027;28;93198;-71
2022/01/17 04:36:09;;;;;;;23.77;2.95;;;;;;;;;;5011986;28;93828;-71
2022/01/17 04:38:35;;;;;;;21.70;2.92;;;;;;;;;;5014714;28;92766;-71
2022/01/17 04:41:05;;;;;;;22.13;2.65;;;;;;;;;;5005767;28;94805;-71
2022/01/17 04:46:05;;;;;;;22.38;3.22;;;;;;;;;;5011931;28;92460;-71
2022/01/17 04:48:31;;;;;;;20.95;2.53;;;;;;;;;;5013270;27;92431;-71
2022/01/17 04:50:58;;;;;;;17.13;3.00;;;;;;;;;;5002973;28;92959;-71
2022/01/17 04:53:25;;;;;;;17.48;2.78;;;;;;;;;;5010370;28;93023;-71
2022/01/17 04:55:52;;;;;;;22.83;3.28;;;;;;;;;;5008716;28;94466;-71
2022/01/17 04:58:18;;;;;;;22.33;2.97;;;;;;;;;;5009417;28;91795;-71
2022/01/17 05:00:47;;;;;;;20.73;2.88;;;;;;;;;;5014657;28;92453;-71
2022/01/17 05:03:18;;;;;;;18.93;2.77;;;;;;;;;;5012019;28;92448;-71
2022/01/17 05:05:45;;;;;;;;;;;;;;;;;;5010333;28;94875;-71
2022/01/17 05:08:11;;;;;;;21.23;3.63;;;;;;;;;;5011049;28;122444;-71
2022/01/17 05:10:37;;;;;;;19.23;3.05;;;;;;;;;;5011837;28;92407;-71
2022/01/17 05:13:04;;;;;;;14.93;2.38;;;;;;;;;;5011151;28;92835;-71
2022/01/17 05:15:43;;;;;;;22.70;3.03;;;;;;;;;;5011176;28;92726;-71
2022/01/17 05:20:36;;;;;;;22.85;3.80;;;;;;;;;;5006450;28;92967;-71
2022/01/17 05:23:03;;;;;;;19.77;3.22;;;;;;;;;;5001068;28;91901;-71
2022/01/17 05:25:29;;;;;;;20.70;3.15;;;;;;;;;;4994762;28;92662;-71
2022/01/17 05:27:55;;;;;;;16.45;3.08;;;;;;;;;;5009896;28;93001;-71
2022/01/17 05:30:22;;;;;;;30.65;3.50;;;;;;;;;;4999735;28;94897;-71
2022/01/17 05:32:49;;;;;;;16.40;3.83;;;;;;;;;;5002292;28;96669;-71
2022/01/17 05:35:16;;;;;;;18.90;3.85;;;;;;;;;;5010927;28;92308;-71
2022/01/17 05:37:43;;;;;;;24.33;4.05;;;;;;;;;;5015349;28;92379;-71
2022/01/17 05:40:10;;;;;;;24.52;3.85;;;;;;;;;;5012313;28;93266;-71
2022/01/17 05:42:37;;;;;;;23.63;3.97;;;;;;;;;;5007143;28;92648;-71
2022/01/17 05:45:04;;;;;;;19.35;3.40;;;;;;;;;;5005875;28;92391;-71
2022/01/17 05:47:31;;;;;;;17.67;4.13;;;;;;;;;;5015555;28;92469;-71
2022/01/17 05:49:59;;;;;;;28.25;4.03;;;;;;;;;;5014125;28;92461;-71
2022/01/17 05:52:25;;;;;;;21.30;3.80;;;;;;;;;;5015148;28;94331;-71
2022/01/17 05:54:52;;;;;;;30.48;5.15;;;;;;;;;;5012866;28;94659;-71
2022/01/17 05:57:18;;;;;;;17.40;3.97;;;;;;;;;;5014873;28;92451;-71
2022/01/17 05:59:44;;;;;;;23.17;3.85;;;;;;;;;;5015108;28;92761;-71
2022/01/17 06:02:11;;;;;;;27.13;4.30;;;;;;;;;;5014125;28;92474;-71
2022/01/17 06:04:37;;;;;;;20.25;4.43;;;;;;;;;;5017393;28;92501;-71
2022/01/17 06:07:04;;;;;;;25.45;4.40;;;;;;;;;;5014217;28;93826;-71
2022/01/17 06:09:30;;;;;;;24.52;5.47;;;;;;;;;;5014399;28;93805;-71
2022/01/17 06:11:56;;;;;;;39.53;6.63;;;;;;;;;;5014423;28;93188;-71
2022/01/17 06:14:23;;;;;;;21.45;4.68;;;;;;;;;;5014537;28;94190;-71
2022/01/17 06:16:49;;;;;;;16.75;4.88;;;;;;;;;;5015075;28;92350;-71
2022/01/17 06:19:16;;;;;;;30.25;6.28;;;;;;;;;;5012176;28;95081;-71
2022/01/17 06:21:43;;;;;;;29.20;5.53;;;;;;;;;;5014782;28;93232;-71
2022/01/17 06:24:14;;;;;;;25.83;7.28;;;;;;;;;;5014011;28;92359;-71
2022/01/17 06:26:41;;;;;;;19.85;6.00;;;;;;;;;;5017574;28;94148;-71
2022/01/17 06:29:09;;;;;;;19.80;5.57;;;;;;;;;;5014206;28;92471;-71
2022/01/17 06:31:35;;;;;;;25.60;6.68;;;;;;;;;;5014463;28;92345;-71
2022/01/17 06:34:02;;;;;;;25.85;6.57;;;;;;;;;;5009930;28;93500;-71
2022/01/17 06:36:29;;;;;;;27.42;6.68;;;;;;;;;;5014526;28;91704;-71
2022/01/17 06:38:55;;;;;;;33.13;7.28;;;;;;;;;;5010793;28;94270;-71
2022/01/17 06:41:22;;;;;;;31.45;8.68;;;;;;;;;;5004818;28;92555;-71
2022/01/17 06:43:49;;;;;;;27.08;8.45;;;;;;;;;;5004464;28;94978;-71
2022/01/17 06:46:15;;;;;;;25.00;8.05;;;;;;;;;;5013466;28;94233;-71
2022/01/17 06:48:42;;;;;;;22.70;8.38;;;;;;;;;;4995871;28;93323;-70
2022/01/17 06:51:08;;;;;;;29.00;9.23;;;;;;;;;;5007001;28;92379;-71
2022/01/17 06:53:35;;;;;;;27.13;8.35;;;;;;;;;;5007825;28;93419;-71
2022/01/17 06:56:01;;;;;;;28.58;8.90;;;;;;;;;;5013894;28;92698;-71
2022/01/17 06:58:27;;;;;;;23.77;9.05;;;;;;;;;;5012993;28;93200;-71
2022/01/17 07:00:54;;;;;;;37.70;10.35;;;;;;;;;;5014127;28;92802;-71
2022/01/17 07:03:21;;;;;;;38.55;11.25;;;;;;;;;;5012882;28;92379;-71
2022/01/17 07:05:47;;;;;;;39.03;11.02;;;;;;;;;;5012705;28;93224;-71
2022/01/17 07:08:14;;;;;;;33.80;10.43;;;;;;;;;;5010877;28;95944;-70
2022/01/17 07:10:40;;;;;;;39.22;11.45;;;;;;;;;;5015380;28;92774;-71
2022/01/17 07:13:06;;;;;;;34.53;10.65;;;;;;;;;;5012640;28;92371;-71
2022/01/17 07:15:36;;;;;;;27.08;11.18;;;;;;;;;;5012498;28;93963;-71
2022/01/17 07:18:02;;;;;;;28.25;12.43;;;;;;;;;;5012913;28;93358;-71
2022/01/17 07:20:29;;;;;;;31.45;11.15;;;;;;;;;;5012423;28;93187;-71
2022/01/17 07:22:55;;;;;;;40.17;13.20;;;;;;;;;;5011396;28;92782;-71
2022/01/17 07:25:21;;;;;;;24.90;11.98;;;;;;;;;;5012023;28;91652;-71
2022/01/17 07:27:48;;;;;;;35.78;12.35;;;;;;;;;;5011021;28;93576;-71
2022/01/17 07:30:14;;;;;;;39.95;12.98;;;;;;;;;;5012489;28;93214;-71
2022/01/17 07:32:40;;;;;;;36.65;13.38;;;;;;;;;;5006113;28;94836;-71
2022/01/17 07:35:07;;;;;;;39.50;12.25;;;;;;;;;;4992786;28;92386;-70
2022/01/17 07:37:33;;;;;;;37.42;13.10;;;;;;;;;;4992907;28;92585;-70
2022/01/17 07:40:00;;;;;;;40.65;12.90;;;;;;;;;;4992760;28;92788;-70
2022/01/17 07:42:27;;;;;;;28.88;12.48;;;;;;;;;;4994480;28;92498;-70
2022/01/17 07:44:55;;;;;;;41.67;12.20;;;;;;;;;;5012693;28;92971;-71
2022/01/17 07:47:38;;;;;;;30.40;11.60;;;;;;;;;;5010732;28;94256;-71
2022/01/17 07:50:05;;;;;;;43.08;12.60;;;;;;;;;;5012849;28;91964;-71
2022/01/17 07:52:34;;;;;;;46.03;12.48;;;;;;;;;;5014667;28;92373;-70
2022/01/17 07:55:00;;;;;;;29.83;11.65;;;;;;;;;;5012441;28;92271;-72
2022/01/17 07:57:27;;;;;;;27.67;11.52;;;;;;;;;;5011175;28;94723;-70
2022/01/17 07:59:53;;;;;;;38.42;12.07;;;;;;;;;;5011378;28;93479;-70
2022/01/17 08:02:19;;;;;;;33.55;11.30;;;;;;;;;;5012073;28;92745;-70
2022/01/17 08:04:46;;;;;;;30.20;10.73;;;;;;;;;;5012197;28;92989;-70
2022/01/17 08:07:12;;;;;;;35.47;10.75;;;;;;;;;;5011778;28;92357;-70
2022/01/17 08:09:40;;;;;;;48.08;11.65;;;;;;;;;;5012164;28;92386;-70
2022/01/17 08:12:08;;;;;;;41.45;9.30;;;;;;;;;;5011706;28;93153;-70
2022/01/17 08:14:34;;;;;;;22.95;8.80;;;;;;;;;;5015169;28;92730;-70
2022/01/17 08:17:01;;;;;;;33.17;9.07;;;;;;;;;;5013026;28;92579;-70
2022/01/17 08:19:27;;;;;;;29.63;8.88;;;;;;;;;;4998277;28;93226;-71
2022/01/17 08:22:01;;;;;;;32.78;7.97;;;;;;;;;;5008956;28;94870;-71
2022/01/17 08:24:28;;;;;;;32.75;8.02;;;;;;;;;;5004249;28;95605;-70
2022/01/17 08:26:54;;;;;;;33.92;7.93;;;;;;;;;;5005974;28;93348;-71
2022/01/17 08:29:22;;;;;;;33.28;7.03;;;;;;;;;;5005967;28;92452;-71
2022/01/17 08:31:48;;;;;;;32.25;7.05;;;;;;;;;;5011539;28;94402;-70
2022/01/17 08:34:17;;;;;;;38.08;7.95;;;;;;;;;;5012404;28;93516;-70
2022/01/17 08:36:44;;;;;;;42.78;7.70;;;;;;;;;;5015777;28;92450;-71
2022/01/17 08:39:11;;;;;;;30.33;6.25;;;;;;;;;;5012670;28;91624;-72
2022/01/17 08:41:42;;;;;;;38.25;6.82;;;;;;;;;;5012275;28;92467;-72
2022/01/17 08:44:12;;;;;;;29.03;5.43;;;;;;;;;;5008643;28;92910;-71
2022/01/17 08:46:39;;;;;;;25.30;5.78;;;;;;;;;;5006432;28;95712;-71
2022/01/17 08:49:05;;;;;;;30.60;6.20;;;;;;;;;;5001962;28;92499;-71
2022/01/17 08:51:32;;;;;;;42.10;5.72;;;;;;;;;;5014793;28;94352;-71
2022/01/17 08:53:58;;;;;;;34.33;6.88;;;;;;;;;;5032235;27;92476;-70
2022/01/17 08:56:27;;;;;;;28.92;6.25;;;;;;;;;;5015492;27;93473;-72
2022/01/17 08:58:53;;;;;;;32.83;5.70;;;;;;;;;;5011546;28;93160;-69
2022/01/17 09:01:20;;;;;;;34.75;5.63;;;;;;;;;;5010962;28;92942;-70
2022/01/17 09:03:47;;;;;;;33.20;6.07;;;;;;;;;;5012667;28;91933;-70
2022/01/17 09:06:14;;;;;;;35.92;5.93;;;;;;;;;;5012363;28;93299;-70
2022/01/17 09:08:41;;;;;;;26.42;4.95;;;;;;;;;;5010843;28;92420;-70
2022/01/17 09:11:07;;;;;;;38.38;5.90;;;;;;;;;;5006291;28;94829;-70
2022/01/17 09:13:34;;;;;;;33.38;5.38;;;;;;;;;;5004963;28;92908;-70
2022/01/17 09:16:00;;;;;;;33.60;5.53;;;;;;;;;;5011210;28;92575;-70
2022/01/17 09:18:27;;;;;;;32.88;5.53;;;;;;;;;;5010943;28;93133;-71
2022/01/17 09:20:53;;;;;;;35.00;5.65;;;;;;;;;;5013335;28;94667;-70
2022/01/17 09:23:19;;;;;;;31.75;5.40;;;;;;;;;;5010443;28;92793;-70
2022/01/17 09:25:46;;;;;;;29.92;4.78;;;;;;;;;;5012034;28;93680;-68
2022/01/17 09:28:13;;;;;;;31.33;5.43;;;;;;;;;;5011797;28;91777;-69
2022/01/17 09:30:39;;;;;;;39.95;5.47;;;;;;;;;;5016831;28;92422;-69
2022/01/17 09:33:06;;;;;;;48.83;6.22;;;;;;;;;;5012140;28;94497;-71
2022/01/17 09:35:32;;;;;;;37.17;6.13;;;;;;;;;;5010256;28;94772;-70
2022/01/17 09:37:59;;;;;;;27.30;4.65;;;;;;;;;;5028911;27;95320;-69
2022/01/17 09:40:26;;;;;;;30.58;5.65;;;;;;;;;;5031274;27;92292;-69
2022/01/17 09:42:54;;;;;;;46.40;5.88;;;;;;;;;;5026546;28;93351;-70
2022/01/17 09:45:21;;;;;;;34.90;4.82;;;;;;;;;;5012700;27;93952;-70
2022/01/17 09:47:48;;;;;;;38.63;5.07;;;;;;;;;;5009688;28;93654;-70
2022/01/17 09:50:19;;;;;;;36.83;5.40;;;;;;;;;;5010691;28;94058;-69
2022/01/17 09:52:47;;;;;;;37.38;4.80;;;;;;;;;;5009538;28;93625;-70
2022/01/17 09:55:14;;;;;;;45.00;6.00;;;;;;;;;;5010858;28;92384;-70
2022/01/17 09:57:45;;;;;;;24.40;4.47;;;;;;;;;;5009541;28;93240;-70
2022/01/17 10:00:12;;;;;;;46.53;5.47;;;;;;;;;;5008480;28;95808;-70
2022/01/17 10:02:39;;;;;;;30.38;5.13;;;;;;;;;;5014428;28;93432;-70
2022/01/17 10:05:10;;;;;;;33.08;5.55;;;;;;;;;;5010880;28;94632;-70
2022/01/17 10:07:55;;;;;;;41.20;5.85;;;;;;;;;;5011438;28;92783;-70
2022/01/17 10:10:40;;;;;;;31.15;5.07;;;;;;;;;;5010865;28;93619;-70
2022/01/17 10:13:11;;;;;;;41.53;6.40;;;;;;;;;;5011013;28;92384;-70
2022/01/17 10:15:48;;;;;;;26.13;6.03;;;;;;;;;;5010651;28;92371;-70
2022/01/17 10:18:30;;;;;;;31.75;4.05;;;;;;;;;;5011691;28;93330;-70
2022/01/17 10:21:02;;;;;;;28.77;4.03;;;;;;;;;;5011032;28;92212;-70
2022/01/17 10:24:08;;;;;;;40.78;6.75;;;;;;;;;;5014224;28;92472;-70
2022/01/17 10:26:59;;;;;;;29.75;5.43;;;;;;;;;;5015871;28;94745;-70
2022/01/17 10:29:54;;;;;;;34.25;5.15;;;;;;;;;;5015006;28;92374;-70
2022/01/17 10:35:14;;;;;;;34.30;4.60;;;;;;;;;;5005359;28;93299;-70
2022/01/17 10:37:41;;;;;;;29.10;5.40;;;;;;;;;;5002797;28;92500;-70
2022/01/17 10:40:09;;;;;;;29.70;4.32;;;;;;;;;;4994051;28;93868;-71
2022/01/17 10:42:41;;;;;;;33.92;5.63;;;;;;;;;;4993946;28;93098;-70
2022/01/17 10:45:07;;;;;;;39.55;4.80;;;;;;;;;;5010073;28;92506;-71
2022/01/17 10:47:37;;;;;;;32.63;5.05;;;;;;;;;;5007101;28;92951;-72
2022/01/17 10:50:07;;;;;;;43.53;5.90;;;;;;;;;;5010938;28;94691;-71
2022/01/17 10:52:35;;;;;;;30.05;5.15;;;;;;;;;;5010402;28;95153;-71
2022/01/17 10:55:06;;;;;;;30.35;4.47;;;;;;;;;;5012070;28;92775;-70
2022/01/17 10:57:38;;;;;;;42.15;5.55;;;;;;;;;;5012317;28;92493;-70
2022/01/17 11:00:08;;;;;;;41.55;5.30;;;;;;;;;;5012139;28;93222;-71
2022/01/17 11:02:35;;;;;;;39.35;5.07;;;;;;;;;;5000602;28;92408;-70
2022/01/17 11:05:06;;;;;;;39.05;4.65;;;;;;;;;;5008393;28;92485;-70
2022/01/17 11:07:43;;;;;;;28.77;4.38;;;;;;;;;;5010955;28;94178;-72
2022/01/17 11:10:14;;;;;;;52.00;6.78;;;;;;;;;;5011799;28;91733;-71
2022/01/17 11:12:40;;;;;;;35.90;4.68;;;;;;;;;;5016634;28;92417;-70
2022/01/17 11:15:06;;;;;;;26.35;4.60;;;;;;;;;;5011486;28;92490;-70
2022/01/17 11:17:38;;;;;;;47.85;6.10;;;;;;;;;;4991928;28;94807;-70
2022/01/17 11:20:07;;;;;;;39.38;4.78;;;;;;;;;;5003425;28;94386;-70
2022/01/17 11:22:37;;;;;;;45.80;6.78;;;;;;;;;;5001949;28;93607;-70
2022/01/17 11:25:05;;;;;;;29.23;4.30;;;;;;;;;;4993640;28;92972;-71
2022/01/17 11:27:32;;;;;;;34.25;4.25;;;;;;;;;;5007371;28;92491;-71
2022/01/17 11:29:58;;;;;;;36.90;4.45;;;;;;;;;;5011495;28;92510;-71
2022/01/17 11:32:25;;;;;;;36.88;6.00;;;;;;;;;;5010366;28;92622;-71
2022/01/17 11:34:52;;;;;;;33.95;4.97;;;;;;;;;;4996304;28;93548;-70
2022/01/17 11:37:19;;;;;;;33.47;5.05;;;;;;;;;;5010308;28;92777;-71
2022/01/17 11:39:57;;;;;;;43.25;5.93;;;;;;;;;;5012445;28;93176;-70
2022/01/17 11:42:34;;;;;;;50.47;6.00;;;;;;;;;;5010359;28;94799;-70
2022/01/17 11:45:01;;;;;;;33.25;5.07;;;;;;;;;;4993032;28;92485;-70
2022/01/17 11:47:47;;;;;;;34.75;4.50;;;;;;;;;;5012947;28;93758;-69
2022/01/17 11:53:11;;;;;;;37.45;5.50;;;;;;;;;;4997933;28;92394;-70
2022/01/17 11:58:22;;;;;;;40.38;5.55;;;;;;;;;;5004832;28;92424;-70
2022/01/17 12:01:07;;;;;;;34.42;5.00;;;;;;;;;;5012985;28;93366;-70
2022/01/17 12:03:46;;;;;;;29.08;4.75;;;;;;;;;;5002394;28;92485;-70
2022/01/17 12:06:18;;;;;;;37.40;4.80;;;;;;;;;;5004647;28;92339;-69
2022/01/17 12:08:45;;;;;;;43.33;6.38;;;;;;;;;;5011473;28;94907;-70
2022/01/17 12:11:31;;;;;;;31.05;4.65;;;;;;;;;;5012597;28;93257;-70
2022/01/17 12:14:18;;;;;;;35.65;4.97;;;;;;;;;;4998271;28;93034;-71
2022/01/17 12:16:44;;;;;;;32.58;5.10;;;;;;;;;;5000857;28;93086;-69
2022/01/17 12:19:11;;;;;;;28.38;4.28;;;;;;;;;;5013612;28;93498;-71
2022/01/17 12:21:43;;;;;;;37.75;5.20;;;;;;;;;;5011207;28;93350;-71
2022/01/17 12:24:18;;;;;;;32.38;4.97;;;;;;;;;;5000019;28;93750;-70
2022/01/17 12:27:06;;;;;;;35.17;5.05;;;;;;;;;;5007975;28;91980;-69
2022/01/17 12:29:44;;;;;;;42.22;5.65;;;;;;;;;;5000784;28;92844;-71
2022/01/17 12:32:25;;;;;;;28.38;4.78;;;;;;;;;;5011490;28;93523;-71
2022/01/17 12:35:09;;;;;;;42.47;5.60;;;;;;;;;;5004112;28;94991;-70
2022/01/17 12:37:39;;;;;;;43.20;6.18;;;;;;;;;;5009728;28;95668;-70
2022/01/17 12:40:10;;;;;;;33.78;5.30;;;;;;;;;;5011244;28;92317;-70
2022/01/17 12:42:36;;;;;;;;;;;;;;;;;;5015770;28;92534;-70
2022/01/17 12:45:03;;;;;;;37.42;4.68;;;;;;;;;;5005208;28;123567;-70
2022/01/17 12:47:30;;;;;;;36.13;5.70;;;;;;;;;;5012364;28;92470;-70
2022/01/17 12:50:04;;;;;;;38.50;5.45;;;;;;;;;;5011767;28;92970;-69
2022/01/17 12:52:30;;;;;;;51.85;5.50;;;;;;;;;;5010561;28;91701;-68
2022/01/17 12:54:57;;;;;;;24.98;4.22;;;;;;;;;;4996297;28;93298;-70
2022/01/17 12:57:24;;;;;;;40.30;4.63;;;;;;;;;;5012087;28;94161;-70
2022/01/17 12:59:50;;;;;;;28.25;3.92;;;;;;;;;;5010974;28;94812;-71
2022/01/17 13:02:19;;;;;;;39.25;5.82;;;;;;;;;;5012249;28;92286;-70
2022/01/17 13:04:45;;;;;;;38.55;4.25;;;;;;;;;;4994694;28;92367;-70
2022/01/17 13:07:13;;;;;;;40.08;5.07;;;;;;;;;;4995306;28;93196;-70
2022/01/17 13:09:40;;;;;;;30.92;4.72;;;;;;;;;;5012474;28;92418;-71
2022/01/17 13:12:09;;;;;;;37.55;4.93;;;;;;;;;;5012190;28;93350;-70
2022/01/17 13:14:35;;;;;;;43.15;4.80;;;;;;;;;;5009526;28;92509;-70
2022/01/17 13:17:06;;;;;;;50.20;6.00;;;;;;;;;;5012512;28;93361;-71
2022/01/17 13:19:32;;;;;;;;;;;;;;;;;;5004326;28;92395;-71
2022/01/17 13:21:58;;;;;;;37.75;5.13;;;;;;;;;;5012701;28;117824;-69
2022/01/17 13:27:16;;;;;;;33.08;4.57;;;;;;;;;;5011048;28;93760;-68
2022/01/17 13:29:43;;;;;;;37.10;5.78;;;;;;;;;;4992092;28;92390;-68
2022/01/17 13:32:12;;;;;;;39.17;5.30;;;;;;;;;;5006827;28;94511;-69
2022/01/17 13:34:39;;;;;;;38.17;4.80;;;;;;;;;;5009523;28;92455;-69
2022/01/17 13:37:06;;;;;;;53.72;6.90;;;;;;;;;;5010892;28;92420;-69
2022/01/17 13:39:52;;;;;;;32.20;4.50;;;;;;;;;;5011974;28;92427;-68
2022/01/17 13:42:45;;;;;;;38.03;6.05;;;;;;;;;;5011586;28;91722;-70
2022/01/17 13:45:11;;;;;;;37.88;4.40;;;;;;;;;;5011771;28;92539;-70
2022/01/17 13:47:38;;;;;;;38.03;5.50;;;;;;;;;;5007772;28;92631;-69
2022/01/17 13:50:05;;;;;;;42.30;5.65;;;;;;;;;;5012610;28;95269;-69
2022/01/17 13:52:31;;;;;;;43.40;5.13;;;;;;;;;;5011457;28;93465;-70
2022/01/17 13:54:58;;;;;;;46.10;6.95;;;;;;;;;;5011384;28;92799;-69
2022/01/17 13:57:44;;;;;;;43.88;5.35;;;;;;;;;;5005869;28;92504;-69
2022/01/17 14:00:11;;;;;;;44.72;5.63;;;;;;;;;;5008910;28;92420;-69
2022/01/17 14:02:38;;;;;;;38.53;5.13;;;;;;;;;;5013968;28;92293;-70
2022/01/17 14:05:06;;;;;;;52.35;6.68;;;;;;;;;;5014645;28;92934;-70
2022/01/17 14:07:33;;;;;;;30.40;4.53;;;;;;;;;;5010385;28;92471;-70
2022/01/17 14:09:59;;;;;;;42.28;5.50;;;;;;;;;;5011625;28;92478;-69
2022/01/17 14:12:27;;;;;;;44.65;6.22;;;;;;;;;;5013854;28;93286;-69
2022/01/17 14:14:56;;;;;;;38.30;5.30;;;;;;;;;;5012902;28;95388;-70
2022/01/17 14:17:23;;;;;;;45.20;5.78;;;;;;;;;;5009729;28;95384;-70
2022/01/17 14:19:50;;;;;;;52.13;5.75;;;;;;;;;;5009829;28;92957;-69
2022/01/17 14:22:17;;;;;;;36.75;5.13;;;;;;;;;;5014944;28;92373;-69
2022/01/17 14:24:44;;;;;;;47.13;5.45;;;;;;;;;;4997221;28;92421;-70
2022/01/17 14:27:18;;;;;;;32.35;4.65;;;;;;;;;;5012105;28;93258;-69
2022/01/17 14:29:45;;;;;;;46.22;5.70;;;;;;;;;;5012591;28;92531;-70
2022/01/17 14:32:12;;;;;;;38.80;5.53;;;;;;;;;;5014954;28;93849;-70
2022/01/17 14:34:40;;;;;;;39.65;5.50;;;;;;;;;;5014764;28;92418;-70
2022/01/17 14:37:10;;;;;;;46.90;6.60;;;;;;;;;;5011381;28;92516;-70
2022/01/17 14:39:44;;;;;;;47.42;6.28;;;;;;;;;;5012280;28;94744;-70
2022/01/17 14:42:14;;;;;;;37.13;6.13;;;;;;;;;;5013592;28;92611;-70
2022/01/17 14:44:43;;;;;;;40.43;6.43;;;;;;;;;;5014204;28;92633;-68
2022/01/17 14:47:11;;;;;;;42.70;5.65;;;;;;;;;;5011967;28;93623;-69
2022/01/17 14:49:39;;;;;;;54.90;5.88;;;;;;;;;;5028446;28;92504;-68
2022/01/17 14:52:09;;;;;;;48.67;6.05;;;;;;;;;;5012407;28;92518;-68
2022/01/17 14:54:49;;;;;;;42.08;5.25;;;;;;;;;;5014602;28;92431;-69
2022/01/17 15:00:13;;;;;;;35.55;5.68;;;;;;;;;;5002830;28;92404;-68
2022/01/17 15:02:50;;;;;;;47.10;6.15;;;;;;;;;;5014078;28;92372;-71
2022/01/17 15:05:17;;;;;;;35.88;5.95;;;;;;;;;;5011436;28;94781;-69
2022/01/17 15:07:44;;;;;;;37.42;5.57;;;;;;;;;;5012478;28;93221;-69
2022/01/17 15:10:11;;;;;;;58.95;7.32;;;;;;;;;;5008588;28;93057;-71
2022/01/17 15:12:42;;;;;;;47.90;7.07;;;;;;;;;;5011043;28;93058;-70